createdAt,value
2017-07-29T00:02:18.360Z,5.60
2017-07-29T00:04:45.969Z,6.30
2017-07-29T00:07:13.551Z,6.20
2017-07-29T00:09:41.183Z,6.43
2017-07-29T00:12:08.807Z,6.00
2017-07-29T00:14:36.454Z,6.27
2017-07-29T00:17:04.058Z,6.80
2017-07-29T00:19:31.708Z,5.77
2017-07-29T00:21:59.296Z,6.60
2017-07-29T00:24:26.940Z,5.73
2017-07-29T00:26:54.528Z,6.20
2017-07-29T00:29:22.157Z,5.73
2017-07-29T00:31:49.774Z,5.60
2017-07-29T00:34:17.493Z,5.60
2017-07-29T00:36:45.102Z,5.33
2017-07-29T00:39:12.760Z,5.83
2017-07-29T00:41:40.359Z,6.07
2017-07-29T00:44:07.984Z,6.17
2017-07-29T00:46:35.611Z,5.83
2017-07-29T00:49:03.267Z,5.83
2017-07-29T00:51:30.871Z,5.53
2017-07-29T00:53:58.494Z,5.80
2017-07-29T00:56:26.085Z,6.43
2017-07-29T00:58:53.885Z,5.87
2017-07-29T01:01:21.560Z,5.70
2017-07-29T01:03:49.133Z,5.50
2017-07-29T01:06:16.748Z,5.73
2017-07-29T01:08:44.365Z,5.73
2017-07-29T01:11:11.990Z,5.03
2017-07-29T01:13:39.731Z,5.43
2017-07-29T01:16:07.340Z,5.20
2017-07-29T01:18:34.953Z,5.30
2017-07-29T01:21:02.744Z,5.20
2017-07-29T01:23:30.344Z,5.30
2017-07-29T01:25:57.970Z,5.60
2017-07-29T01:28:25.591Z,5.30
2017-07-29T01:30:53.228Z,6.23
2017-07-29T01:33:20.826Z,5.20
2017-07-29T01:35:48.438Z,5.80
2017-07-29T01:38:16.042Z,6.00
2017-07-29T01:40:43.651Z,5.43
2017-07-29T01:43:11.249Z,5.43
2017-07-29T01:45:39.006Z,6.00
2017-07-29T01:48:06.606Z,6.60
2017-07-29T01:50:34.248Z,6.57
2017-07-29T01:53:01.851Z,6.27
2017-07-29T01:55:29.470Z,5.50
2017-07-29T01:57:57.067Z,6.10
2017-07-29T02:00:24.836Z,5.70
2017-07-29T02:02:52.427Z,5.60
2017-07-29T02:05:20.045Z,5.80
2017-07-29T02:07:47.641Z,6.20
2017-07-29T02:10:15.292Z,5.63
2017-07-29T02:12:42.913Z,5.43
2017-07-29T02:15:10.519Z,6.20
2017-07-29T02:17:38.182Z,6.77
2017-07-29T02:20:05.796Z,6.20
2017-07-29T02:22:33.400Z,6.20
2017-07-29T02:25:01.002Z,5.67
2017-07-29T02:27:28.773Z,6.10
2017-07-29T02:29:56.607Z,6.27
2017-07-29T02:32:24.236Z,6.30
2017-07-29T02:34:51.852Z,5.80
2017-07-29T02:37:19.623Z,5.50
2017-07-29T02:39:48.050Z,6.87
2017-07-29T02:42:15.661Z,6.00
2017-07-29T02:44:43.267Z,5.90
2017-07-29T02:47:10.884Z,6.03
2017-07-29T02:49:38.480Z,6.00
2017-07-29T02:52:06.124Z,5.67
2017-07-29T02:54:33.709Z,5.70
2017-07-29T02:57:01.319Z,5.63
2017-07-29T02:59:28.912Z,5.60
2017-07-29T03:01:56.539Z,5.93
2017-07-29T03:04:24.138Z,5.50
2017-07-29T03:06:51.837Z,6.13
2017-07-29T03:09:19.423Z,5.70
2017-07-29T03:11:47.108Z,5.73
2017-07-29T03:14:14.700Z,4.90
2017-07-29T03:16:42.386Z,5.23
2017-07-29T03:19:10.000Z,5.50
2017-07-29T03:21:37.714Z,5.67
2017-07-29T03:24:05.433Z,5.40
2017-07-29T03:26:33.039Z,5.60
2017-07-29T03:29:00.652Z,5.60
2017-07-29T03:31:28.274Z,5.87
2017-07-29T03:33:55.878Z,5.57
2017-07-29T03:36:23.496Z,5.80
2017-07-29T03:38:51.101Z,5.83
2017-07-29T03:41:18.722Z,5.30
2017-07-29T03:43:46.313Z,5.20
2017-07-29T03:46:13.954Z,5.50
2017-07-29T03:48:41.555Z,5.57
2017-07-29T03:51:09.183Z,5.60
2017-07-29T03:53:36.771Z,5.67
2017-07-29T03:56:04.712Z,5.73
2017-07-29T03:58:32.308Z,6.10
2017-07-29T04:00:59.917Z,5.90
2017-07-29T04:03:27.524Z,5.40
2017-07-29T04:05:55.132Z,5.40
2017-07-29T04:08:22.763Z,5.90
2017-07-29T04:10:50.484Z,5.80
2017-07-29T04:13:18.103Z,5.47
2017-07-29T04:15:45.700Z,5.70
2017-07-29T04:18:13.504Z,5.70
2017-07-29T04:20:41.081Z,5.50
2017-07-29T04:23:08.691Z,6.10
2017-07-29T04:25:36.281Z,5.93
2017-07-29T04:28:03.885Z,5.83
2017-07-29T04:30:31.468Z,6.13
2017-07-29T04:32:59.108Z,5.50
2017-07-29T04:35:26.691Z,6.23
2017-07-29T04:37:54.305Z,6.07
2017-07-29T04:40:21.907Z,6.30
2017-07-29T04:42:49.546Z,6.10
2017-07-29T04:45:17.152Z,5.50
2017-07-29T04:47:44.786Z,5.90
2017-07-29T04:50:12.378Z,6.33
2017-07-29T04:52:40.012Z,5.70
2017-07-29T04:55:07.614Z,5.83
2017-07-29T04:57:35.240Z,5.83
2017-07-29T05:00:02.855Z,6.17
2017-07-29T05:02:30.486Z,5.30
2017-07-29T05:04:58.090Z,5.63
2017-07-29T05:07:25.724Z,5.87
2017-07-29T05:09:53.321Z,6.47
2017-07-29T05:12:20.943Z,5.40
2017-07-29T05:14:48.554Z,5.30
2017-07-29T05:17:16.185Z,5.17
2017-07-29T05:19:43.806Z,4.73
2017-07-29T05:22:11.423Z,5.33
2017-07-29T05:24:39.108Z,5.23
2017-07-29T05:27:06.713Z,5.40
2017-07-29T05:29:34.298Z,4.77
2017-07-29T05:32:01.900Z,4.50
2017-07-29T05:34:29.533Z,4.47
2017-07-29T05:36:57.112Z,4.60
2017-07-29T05:39:24.739Z,4.30
2017-07-29T05:41:52.324Z,4.43
2017-07-29T05:44:20.076Z,4.27
2017-07-29T05:46:47.667Z,4.87
2017-07-29T05:49:15.295Z,4.97
2017-07-29T05:51:43.005Z,4.27
2017-07-29T05:54:10.635Z,4.50
2017-07-29T05:56:38.228Z,4.13
2017-07-29T05:59:05.835Z,5.00
2017-07-29T06:01:33.453Z,4.83
2017-07-29T06:04:01.064Z,5.10
2017-07-29T06:06:28.669Z,5.67
2017-07-29T06:08:56.309Z,4.87
2017-07-29T06:11:23.914Z,5.20
2017-07-29T06:13:51.528Z,5.40
2017-07-29T06:16:19.101Z,5.43
2017-07-29T06:18:46.834Z,4.67
2017-07-29T06:21:14.427Z,5.30
2017-07-29T06:23:42.040Z,5.53
2017-07-29T06:26:09.633Z,4.50
2017-07-29T06:28:37.498Z,5.60
2017-07-29T06:31:05.101Z,4.97
2017-07-29T06:33:32.784Z,5.57
2017-07-29T06:36:00.382Z,4.77
2017-07-29T06:38:27.999Z,4.60
2017-07-29T06:40:55.595Z,5.03
2017-07-29T06:43:23.202Z,4.80
2017-07-29T06:45:50.810Z,4.47
2017-07-29T06:48:18.418Z,4.73
2017-07-29T06:50:46.011Z,4.63
2017-07-29T06:53:13.653Z,5.10
2017-07-29T06:55:41.262Z,4.40
2017-07-29T06:58:08.863Z,5.20
2017-07-29T07:00:36.545Z,4.73
2017-07-29T07:03:04.448Z,4.30
2017-07-29T07:05:32.070Z,4.90
2017-07-29T07:07:59.757Z,3.70
2017-07-29T07:13:01.371Z,4.37
2017-07-29T07:15:29.098Z,3.90
2017-07-29T07:17:56.709Z,3.87
2017-07-29T07:20:24.333Z,4.60
2017-07-29T07:22:51.934Z,3.37
2017-07-29T07:25:20.006Z,4.43
2017-07-29T07:27:47.721Z,3.90
2017-07-29T07:30:15.351Z,3.90
2017-07-29T07:32:42.947Z,4.03
2017-07-29T07:35:10.701Z,3.70
2017-07-29T07:37:38.338Z,3.67
2017-07-29T07:40:06.111Z,4.10
2017-07-29T07:42:33.755Z,3.97
2017-07-29T07:45:01.377Z,3.80
2017-07-29T07:47:28.987Z,3.87
2017-07-29T07:49:56.616Z,3.87
2017-07-29T07:52:24.216Z,4.20
2017-07-29T07:54:51.851Z,3.20
2017-07-29T07:57:19.447Z,4.03
2017-07-29T07:59:47.043Z,3.30
2017-07-29T08:02:14.619Z,3.83
2017-07-29T08:04:42.210Z,3.27
2017-07-29T08:07:09.921Z,3.40
2017-07-29T08:09:37.538Z,3.50
2017-07-29T08:12:05.111Z,3.30
2017-07-29T08:14:32.854Z,3.50
2017-07-29T08:17:00.425Z,3.27
2017-07-29T08:19:28.011Z,3.47
2017-07-29T08:21:55.609Z,3.17
2017-07-29T08:24:23.603Z,3.53
2017-07-29T08:26:51.189Z,3.40
2017-07-29T08:29:18.757Z,3.50
2017-07-29T08:31:46.357Z,3.73
2017-07-29T08:34:13.947Z,3.20
2017-07-29T08:36:41.549Z,3.60
2017-07-29T08:39:09.133Z,3.70
2017-07-29T08:41:36.734Z,3.40
2017-07-29T08:44:04.307Z,3.10
2017-07-29T08:46:31.886Z,3.10
2017-07-29T08:48:59.496Z,4.17
2017-07-29T08:51:27.090Z,3.17
2017-07-29T08:53:54.692Z,3.40
2017-07-29T08:56:22.315Z,3.00
2017-07-29T08:58:49.891Z,3.20
2017-07-29T09:01:17.521Z,3.40
2017-07-29T09:03:45.085Z,3.00
2017-07-29T09:06:12.676Z,3.50
2017-07-29T09:08:40.253Z,3.53
2017-07-29T09:11:07.885Z,3.10
2017-07-29T09:13:35.459Z,3.50
2017-07-29T09:16:03.054Z,3.00
2017-07-29T09:18:30.670Z,3.63
2017-07-29T09:20:58.287Z,3.50
2017-07-29T09:23:25.866Z,3.20
2017-07-29T09:25:53.470Z,3.20
2017-07-29T09:28:21.053Z,3.40
2017-07-29T09:30:48.645Z,3.50
2017-07-29T09:33:16.221Z,3.23
2017-07-29T09:35:43.835Z,3.40
2017-07-29T09:38:11.412Z,3.10
2017-07-29T09:40:39.022Z,3.70
2017-07-29T09:43:06.596Z,3.83
2017-07-29T09:45:34.209Z,3.50
2017-07-29T09:48:01.874Z,4.03
2017-07-29T09:50:29.464Z,3.10
2017-07-29T09:52:57.454Z,3.63
2017-07-29T09:55:25.027Z,3.27
2017-07-29T09:57:52.616Z,3.20
2017-07-29T10:00:20.287Z,3.40
2017-07-29T10:02:47.899Z,2.87
2017-07-29T10:05:15.480Z,3.30
2017-07-29T10:07:43.088Z,2.70
2017-07-29T10:10:10.706Z,3.40
2017-07-29T10:12:38.309Z,3.70
2017-07-29T10:15:05.921Z,3.17
2017-07-29T10:17:33.526Z,3.00
2017-07-29T10:20:01.210Z,3.23
2017-07-29T10:22:28.817Z,3.20
2017-07-29T10:24:56.429Z,2.57
2017-07-29T10:27:24.062Z,3.17
2017-07-29T10:29:51.638Z,3.17
2017-07-29T10:32:19.229Z,3.37
2017-07-29T10:34:46.822Z,3.07
2017-07-29T10:37:14.427Z,3.30
2017-07-29T10:39:42.130Z,3.03
2017-07-29T10:42:09.728Z,3.17
2017-07-29T10:44:37.321Z,2.90
2017-07-29T10:47:05.157Z,3.37
2017-07-29T10:49:32.754Z,3.37
2017-07-29T10:52:00.354Z,3.07
2017-07-29T10:54:27.925Z,2.90
2017-07-29T10:56:55.523Z,3.40
2017-07-29T10:59:23.102Z,2.97
2017-07-29T11:01:50.718Z,3.50
2017-07-29T11:04:18.314Z,2.90
2017-07-29T11:06:45.894Z,3.70
2017-07-29T11:09:13.551Z,3.27
2017-07-29T11:11:41.187Z,2.70
2017-07-29T11:14:08.833Z,3.20
2017-07-29T11:16:36.475Z,2.67
2017-07-29T11:19:04.055Z,3.00
2017-07-29T11:21:31.655Z,3.07
2017-07-29T11:23:59.267Z,3.77
2017-07-29T11:26:26.876Z,2.83
2017-07-29T11:28:54.462Z,2.83
2017-07-29T11:31:22.032Z,2.77
2017-07-29T11:33:49.639Z,3.27
2017-07-29T11:36:17.248Z,3.20
2017-07-29T11:38:44.865Z,3.30
2017-07-29T11:41:12.454Z,3.47
2017-07-29T11:43:40.053Z,3.13
2017-07-29T11:46:07.658Z,3.10
2017-07-29T11:48:35.258Z,3.80
2017-07-29T11:51:02.842Z,3.07
2017-07-29T11:53:30.535Z,2.93
2017-07-29T11:55:58.135Z,2.77
2017-07-29T11:58:25.750Z,2.90
2017-07-29T12:00:53.356Z,2.57
2017-07-29T12:03:20.958Z,3.20
2017-07-29T12:05:48.540Z,2.60
2017-07-29T12:08:16.145Z,3.33
2017-07-29T12:10:43.731Z,2.90
2017-07-29T12:13:11.360Z,2.70
2017-07-29T12:15:38.940Z,2.90
2017-07-29T12:18:06.812Z,2.53
2017-07-29T12:20:34.406Z,2.70
2017-07-29T12:23:01.998Z,2.77
2017-07-29T12:25:29.571Z,2.90
2017-07-29T12:27:57.197Z,2.40
2017-07-29T12:30:24.786Z,2.97
2017-07-29T12:32:52.408Z,2.60
2017-07-29T12:35:19.989Z,2.63
2017-07-29T12:37:47.862Z,2.30
2017-07-29T12:40:15.441Z,2.50
2017-07-29T12:42:43.032Z,2.70
2017-07-29T12:45:10.650Z,2.67
2017-07-29T12:47:38.263Z,3.00
2017-07-29T12:50:05.880Z,3.13
2017-07-29T12:52:33.474Z,2.70
2017-07-29T12:55:01.080Z,2.83
2017-07-29T12:57:28.736Z,2.67
2017-07-29T12:59:56.400Z,3.13
2017-07-29T13:02:23.981Z,2.50
2017-07-29T13:04:51.599Z,2.70
2017-07-29T13:07:19.322Z,2.33
2017-07-29T13:09:46.958Z,2.60
2017-07-29T13:12:14.545Z,2.77
2017-07-29T13:14:42.159Z,2.63
2017-07-29T13:17:09.749Z,2.83
2017-07-29T13:19:37.377Z,2.33
2017-07-29T13:22:05.048Z,3.00
2017-07-29T13:24:32.679Z,2.77
2017-07-29T13:27:00.249Z,2.83
2017-07-29T13:29:27.877Z,2.50
2017-07-29T13:31:55.527Z,2.53
2017-07-29T13:34:23.177Z,2.50
2017-07-29T13:36:50.749Z,2.50
2017-07-29T13:39:18.670Z,2.20
2017-07-29T13:41:46.266Z,2.37
2017-07-29T13:44:13.855Z,2.23
2017-07-29T13:46:41.827Z,2.07
2017-07-29T13:49:09.411Z,2.23
2017-07-29T13:51:37.006Z,1.83
2017-07-29T13:54:04.610Z,2.20
2017-07-29T13:56:32.215Z,2.60
2017-07-29T13:58:59.828Z,2.50
2017-07-29T14:01:27.452Z,2.27
2017-07-29T14:03:55.057Z,2.37
2017-07-29T14:06:22.663Z,2.70
2017-07-29T14:08:50.270Z,2.00
2017-07-29T14:11:17.861Z,2.03
2017-07-29T14:13:45.435Z,2.40
2017-07-29T14:16:13.390Z,2.10
2017-07-29T14:18:40.977Z,2.20
2017-07-29T14:21:08.614Z,1.90
2017-07-29T14:23:36.254Z,2.60
2017-07-29T14:26:03.835Z,8.80
2017-07-29T14:28:31.507Z,3.00
2017-07-29T14:30:59.075Z,2.58
2017-07-29T14:33:27.011Z,5.60
2017-07-29T14:35:54.648Z,2.50
2017-07-29T14:38:22.257Z,2.50
2017-07-29T14:40:49.865Z,1.90
2017-07-29T14:43:17.456Z,2.23
2017-07-29T14:45:45.062Z,1.97
2017-07-29T14:48:30.249Z,2.23
2017-07-29T14:50:58.157Z,2.20
2017-07-29T14:53:25.737Z,2.10
2017-07-29T14:55:53.334Z,1.73
2017-07-29T14:58:20.937Z,1.87
2017-07-29T15:00:48.529Z,2.50
2017-07-29T15:03:16.164Z,2.67
2017-07-29T15:05:43.749Z,2.40
2017-07-29T15:08:11.624Z,1.87
2017-07-29T15:10:39.227Z,2.17
2017-07-29T15:13:06.803Z,2.10
2017-07-29T15:15:34.413Z,2.33
2017-07-29T15:18:02.015Z,2.20
2017-07-29T15:20:29.624Z,2.70
2017-07-29T15:22:57.226Z,2.30
2017-07-29T15:25:24.845Z,2.60
2017-07-29T15:27:52.421Z,2.30
2017-07-29T15:30:20.022Z,2.30
2017-07-29T15:32:47.763Z,2.17
2017-07-29T15:35:15.688Z,2.13
2017-07-29T15:37:43.263Z,1.80
2017-07-29T15:40:10.853Z,2.10
2017-07-29T15:42:38.495Z,2.53
2017-07-29T15:45:06.588Z,3.57
2017-07-29T15:47:34.570Z,3.47
2017-07-29T15:50:02.834Z,2.07
2017-07-29T15:52:30.557Z,2.50
2017-07-29T15:54:58.183Z,2.30
2017-07-29T15:57:25.769Z,2.37
2017-07-29T15:59:53.496Z,2.17
2017-07-29T16:02:21.064Z,2.20
2017-07-29T16:04:48.693Z,2.43
2017-07-29T16:07:16.257Z,2.40
2017-07-29T16:09:44.273Z,2.30
2017-07-29T16:12:11.853Z,2.03
2017-07-29T16:14:39.459Z,2.50
2017-07-29T16:17:07.059Z,2.50
2017-07-29T16:19:34.637Z,2.53
2017-07-29T16:22:02.249Z,2.90
2017-07-29T16:24:29.836Z,2.63
2017-07-29T16:26:57.800Z,2.97
2017-07-29T16:29:25.380Z,2.33
2017-07-29T16:31:52.973Z,2.30
2017-07-29T16:34:20.574Z,2.77
2017-07-29T16:36:48.156Z,3.30
2017-07-29T16:39:15.755Z,2.60
2017-07-29T16:41:43.343Z,2.50
2017-07-29T16:44:11.325Z,2.37
2017-07-29T16:46:38.885Z,3.00
2017-07-29T16:49:06.478Z,2.90
2017-07-29T16:51:34.079Z,3.03
2017-07-29T16:54:01.694Z,2.90
2017-07-29T16:56:29.291Z,2.70
2017-07-29T16:58:56.874Z,2.80
2017-07-29T17:01:25.550Z,2.70
2017-07-29T17:03:53.118Z,2.53
2017-07-29T17:06:21.245Z,2.50
2017-07-29T17:08:48.820Z,2.80
2017-07-29T17:11:16.423Z,2.60
2017-07-29T17:13:44.146Z,2.37
2017-07-29T17:16:11.732Z,2.73
2017-07-29T17:18:39.322Z,2.67
2017-07-29T17:21:06.903Z,2.77
2017-07-29T17:23:34.851Z,2.83
2017-07-29T17:26:02.491Z,2.43
2017-07-29T17:28:30.072Z,2.75
2017-07-29T17:30:57.665Z,2.30
2017-07-29T17:33:25.275Z,2.50
2017-07-29T17:35:52.885Z,3.07
2017-07-29T17:38:20.466Z,2.93
2017-07-29T17:40:48.077Z,3.23
2017-07-29T17:43:15.693Z,2.73
2017-07-29T17:45:43.306Z,2.80
2017-07-29T17:48:11.013Z,3.10
2017-07-29T17:50:38.625Z,3.20
2017-07-29T17:53:06.230Z,2.60
2017-07-29T17:55:33.829Z,2.93
2017-07-29T17:58:01.841Z,2.70
2017-07-29T18:00:29.467Z,3.03
2017-07-29T18:02:57.078Z,3.50
2017-07-29T18:05:24.938Z,2.50
2017-07-29T18:07:52.507Z,3.43
2017-07-29T18:10:20.084Z,3.00
2017-07-29T18:12:47.675Z,2.60
2017-07-29T18:15:15.576Z,3.10
2017-07-29T18:17:43.193Z,3.10
2017-07-29T18:20:10.754Z,3.27
2017-07-29T18:22:38.337Z,3.23
2017-07-29T18:25:05.922Z,3.22
2017-07-29T18:27:33.533Z,3.57
2017-07-29T18:30:01.113Z,3.07
2017-07-29T18:32:28.861Z,4.07
2017-07-29T18:34:57.331Z,3.30
2017-07-29T18:37:25.358Z,3.60
2017-07-29T18:39:53.080Z,3.27
2017-07-29T18:42:20.831Z,3.83
2017-07-29T18:44:48.489Z,3.60
2017-07-29T18:47:16.826Z,3.70
2017-07-29T18:49:45.502Z,3.00
2017-07-29T18:52:13.111Z,4.47
2017-07-29T18:54:40.688Z,4.77
2017-07-29T18:57:08.324Z,5.90
2017-07-29T18:59:35.913Z,5.00
2017-07-29T19:02:03.610Z,4.50
2017-07-29T19:04:31.184Z,5.30
2017-07-29T19:06:59.141Z,5.60
2017-07-29T19:09:26.743Z,6.70
2017-07-29T19:11:54.405Z,5.43
2017-07-29T19:14:22.027Z,6.37
2017-07-29T19:16:49.617Z,5.33
2017-07-29T19:19:17.212Z,7.60
2017-07-29T19:21:44.832Z,10.93
2017-07-29T19:24:12.435Z,8.43
2017-07-29T19:26:40.025Z,7.20
2017-07-29T19:29:07.984Z,6.80
2017-07-29T19:31:35.555Z,6.10
2017-07-29T19:35:21.839Z,6.23
2017-07-29T19:37:49.449Z,5.63
2017-07-29T19:40:17.035Z,5.50
2017-07-29T19:42:45.480Z,6.83
2017-07-29T19:45:13.207Z,8.17
2017-07-29T19:47:40.829Z,7.30
2017-07-29T19:50:08.524Z,5.70
2017-07-29T19:52:36.473Z,4.80
2017-07-29T19:55:04.067Z,5.27
2017-07-29T19:57:31.662Z,5.03
2017-07-29T19:59:59.309Z,6.30
2017-07-29T20:02:27.017Z,5.70
2017-07-29T20:04:54.661Z,5.47
2017-07-29T20:07:22.290Z,5.03
2017-07-29T20:09:49.924Z,5.23
2017-07-29T20:12:17.518Z,6.00
2017-07-29T20:14:45.435Z,5.33
2017-07-29T20:17:13.043Z,5.30
2017-07-29T20:19:40.634Z,6.00
2017-07-29T20:22:08.370Z,6.10
2017-07-29T20:24:35.977Z,6.70
2017-07-29T20:28:51.343Z,6.43
2017-07-29T20:31:19.071Z,5.37
2017-07-29T20:33:46.673Z,6.33
2017-07-29T20:36:14.692Z,6.23
2017-07-29T20:38:42.471Z,5.10
2017-07-29T20:41:10.054Z,4.97
2017-07-29T20:43:37.631Z,5.30
2017-07-29T20:46:05.264Z,6.13
2017-07-29T20:48:33.021Z,7.27
2017-07-29T20:51:00.589Z,6.90
2017-07-29T20:53:28.527Z,7.10
2017-07-29T20:55:56.165Z,7.30
2017-07-29T20:58:23.764Z,6.80
2017-07-29T21:00:51.371Z,6.90
2017-07-29T21:03:19.039Z,9.00
2017-07-29T21:05:47.063Z,9.40
2017-07-29T21:08:14.661Z,7.30
2017-07-29T21:10:42.331Z,7.10
2017-07-29T21:13:09.938Z,5.67
2017-07-29T21:15:37.927Z,5.47
2017-07-29T21:18:05.531Z,5.30
2017-07-29T21:20:33.194Z,5.17
2017-07-29T21:23:00.834Z,5.60
2017-07-29T21:25:28.517Z,5.57
2017-07-29T21:27:56.136Z,4.73
2017-07-29T21:30:23.769Z,5.57
2017-07-29T21:32:51.724Z,5.10
2017-07-29T21:35:19.319Z,5.17
2017-07-29T22:38:18.540Z,8.80
2017-07-29T22:40:46.151Z,8.97
2017-07-29T22:43:14.083Z,9.50
2017-07-29T22:45:42.187Z,9.77
2017-07-29T22:48:09.761Z,8.03
2017-07-29T22:50:37.361Z,8.73
2017-07-29T22:53:05.623Z,8.07
2017-07-29T22:55:33.234Z,8.10
2017-07-29T22:58:00.864Z,8.87
2017-07-29T23:00:28.466Z,7.60
2017-07-29T23:02:56.395Z,7.73
2017-07-29T23:05:23.970Z,7.70
2017-07-29T23:07:51.581Z,7.47
2017-07-29T23:10:19.198Z,7.83
2017-07-29T23:12:46.815Z,7.00
2017-07-29T23:15:14.405Z,7.30
2017-07-29T23:17:42.138Z,7.57
2017-07-29T23:20:09.794Z,7.57
2017-07-29T23:22:37.416Z,6.40
2017-07-29T23:25:05.105Z,6.73
2017-07-29T23:27:32.732Z,6.87
2017-07-29T23:30:00.637Z,6.50
2017-07-29T23:32:28.219Z,7.37
2017-07-29T23:34:55.820Z,6.47
2017-07-29T23:37:23.431Z,7.20
2017-07-29T23:39:51.043Z,6.17
2017-07-29T23:42:19.093Z,6.70
2017-07-29T23:44:46.887Z,6.90
2017-07-29T23:47:14.519Z,8.50
2017-07-29T23:49:42.099Z,7.60
2017-07-29T23:52:10.029Z,7.80
2017-07-29T23:54:37.628Z,7.70
2017-07-29T23:57:05.220Z,7.53
2017-07-29T23:59:32.834Z,7.20
